createdAt,value
2023-02-04T00:03:23.987Z,1.06
2023-02-04T00:15:15.629Z,1.08
2023-02-04T00:19:04.957Z,1.06
2023-02-04T00:22:54.086Z,1.06
2023-02-04T00:26:43.205Z,1.07
2023-02-04T00:30:31.231Z,1.10
2023-02-04T00:34:20.568Z,1.14
2023-02-04T00:38:09.568Z,1.16
2023-02-04T00:41:59.151Z,1.20
2023-02-04T00:45:48.314Z,1.24
2023-02-04T00:49:37.829Z,1.28
2023-02-04T00:53:26.974Z,1.32
2023-02-04T00:57:16.116Z,1.35
2023-02-04T01:01:05.130Z,1.38
2023-02-04T01:04:54.616Z,1.39
2023-02-04T01:08:43.804Z,1.40
2023-02-04T01:12:33.206Z,1.42
2023-02-04T01:16:22.348Z,1.44
2023-02-04T01:20:11.445Z,1.45
2023-02-04T01:24:00.477Z,1.45
2023-02-04T01:27:51.632Z,1.45
2023-02-04T01:31:40.716Z,1.46
2023-02-04T01:35:58.170Z,1.46
2023-02-04T01:39:47.243Z,1.39
2023-02-04T01:43:36.496Z,1.37
2023-02-04T01:47:25.663Z,1.34
2023-02-04T01:51:15.110Z,1.32
2023-02-04T01:55:04.069Z,1.28
2023-02-04T02:03:10.396Z,1.25
2023-02-04T02:06:58.061Z,1.21
2023-02-04T02:10:45.874Z,1.20
2023-02-04T02:14:34.016Z,1.19
2023-02-04T02:26:48.512Z,1.23
2023-02-04T02:30:39.140Z,1.18
2023-02-04T02:34:26.840Z,1.07
2023-02-04T02:38:14.907Z,0.98
2023-02-04T02:42:03.329Z,0.83
2023-02-04T02:46:02.190Z,0.77
2023-02-04T02:50:38.391Z,0.80
2023-02-04T02:54:26.595Z,0.77
2023-02-04T02:58:14.049Z,0.76
2023-02-04T03:02:03.022Z,0.75
2023-02-04T03:17:59.101Z,0.48
2023-02-04T03:21:46.928Z,0.37
2023-02-04T03:25:34.659Z,0.31
2023-02-04T03:29:22.390Z,0.25
2023-02-04T03:44:56.060Z,0.14
2023-02-04T03:48:45.151Z,0.10
2023-02-04T03:52:34.308Z,0.09
2023-02-04T03:56:24.363Z,0.07
2023-02-04T04:00:14.220Z,0.06
2023-02-04T04:04:03.479Z,0.04
2023-02-04T04:07:54.388Z,0.03
2023-02-04T04:11:44.295Z,-0.00
2023-02-04T04:15:34.321Z,-0.03
2023-02-04T04:23:11.413Z,-0.07
2023-02-04T04:30:46.679Z,-0.11
2023-02-04T04:34:36.065Z,-0.12
2023-02-04T04:38:05.943Z,-0.12
2023-02-04T04:41:55.683Z,-0.13
2023-02-04T04:45:25.219Z,-0.14
2023-02-04T04:49:14.360Z,-0.17
2023-02-04T04:53:04.429Z,-0.22
2023-02-04T04:56:53.653Z,-0.26
2023-02-04T05:00:42.775Z,-0.34
2023-02-04T05:04:31.937Z,-0.39
2023-02-04T05:08:21.448Z,-0.44
2023-02-04T05:12:10.494Z,-0.47
2023-02-04T05:15:59.784Z,-0.56
2023-02-04T05:19:49.221Z,-0.74
2023-02-04T05:23:38.292Z,-0.85
2023-02-04T05:27:27.316Z,-0.98
2023-02-04T05:31:43.906Z,-1.08
2023-02-04T05:35:32.919Z,-1.15
2023-02-04T05:39:21.984Z,-1.19
2023-02-04T05:43:11.412Z,-1.24
2023-02-04T05:47:01.339Z,-1.29
2023-02-04T06:02:39.293Z,-1.34
2023-02-04T06:06:28.637Z,-1.36
2023-02-04T06:10:17.724Z,-1.39
2023-02-04T06:14:06.913Z,-1.43
2023-02-04T06:17:56.848Z,-1.45
2023-02-04T06:21:46.773Z,-1.48
2023-02-04T06:25:35.944Z,-1.50
2023-02-04T06:29:25.584Z,-1.54
2023-02-04T06:32:55.455Z,-1.57
2023-02-04T06:52:21.528Z,-1.75
2023-02-04T06:56:10.654Z,-1.77
2023-02-04T07:00:00.071Z,-1.77
2023-02-04T07:03:49.354Z,-1.77
2023-02-04T07:07:38.629Z,-1.79
2023-02-04T07:11:27.824Z,-1.82
2023-02-04T07:15:17.621Z,-1.87
2023-02-04T07:19:06.744Z,-1.89
2023-02-04T07:22:55.846Z,-1.91
2023-02-04T07:26:45.006Z,-1.93
2023-02-04T07:30:34.779Z,-1.95
2023-02-04T07:34:24.158Z,-1.97
2023-02-04T07:38:14.681Z,-1.98
2023-02-04T07:42:03.710Z,-2.00
2023-02-04T07:45:53.078Z,-2.04
2023-02-04T07:49:42.098Z,-2.07
2023-02-04T07:53:59.844Z,-2.05
2023-02-04T07:57:48.852Z,-2.07
2023-02-04T08:01:38.134Z,-2.08
2023-02-04T08:05:27.229Z,-2.10
2023-02-04T08:09:16.209Z,-2.09
2023-02-04T08:13:05.388Z,-2.07
2023-02-04T08:16:54.494Z,-2.03
2023-02-04T08:20:43.858Z,-1.99
2023-02-04T08:24:34.251Z,-1.98
2023-02-04T08:28:24.377Z,-1.99
2023-02-04T08:32:14.696Z,-1.95
2023-02-04T08:36:05.879Z,-1.91
2023-02-04T08:39:54.914Z,-1.87
2023-02-04T08:43:44.767Z,-1.84
2023-02-04T08:47:34.842Z,-1.80
2023-02-04T08:51:23.879Z,-1.80
2023-02-04T08:55:13.298Z,-1.77
2023-02-04T08:59:02.703Z,-1.77
2023-02-04T09:02:51.721Z,-1.74
2023-02-04T09:06:33.756Z,-1.77
2023-02-04T09:10:15.200Z,-1.77
2023-02-04T09:14:04.294Z,-1.76
2023-02-04T09:17:53.653Z,-1.72
2023-02-04T09:21:43.436Z,-1.62
2023-02-04T09:25:32.597Z,-1.54
2023-02-04T09:29:21.652Z,-1.43
2023-02-04T09:33:11.013Z,-1.33
2023-02-04T09:37:00.011Z,-1.34
2023-02-04T09:40:49.403Z,-1.35
2023-02-04T09:44:44.240Z,-1.24
2023-02-04T09:48:25.713Z,-1.15
2023-02-04T09:52:14.681Z,-1.02
2023-02-04T09:56:04.130Z,-0.66
2023-02-04T09:59:53.248Z,-0.21
2023-02-04T10:26:41.637Z,-1.01
2023-02-04T10:30:23.392Z,-1.05
2023-02-04T10:34:12.346Z,-0.69
2023-02-04T10:38:01.630Z,0.44
2023-02-04T10:41:51.181Z,0.88
2023-02-04T10:45:42.205Z,1.55
2023-02-04T10:53:17.515Z,1.24
2023-02-04T11:05:27.582Z,0.28
2023-02-04T11:09:17.927Z,0.08
2023-02-04T11:13:17.596Z,0.27
2023-02-04T11:25:18.042Z,0.81
2023-02-04T11:29:28.884Z,0.53
2023-02-04T11:41:47.143Z,1.78
2023-02-04T11:45:39.557Z,1.67
2023-02-04T11:49:28.626Z,1.27
2023-02-04T11:53:20.025Z,0.95
2023-02-04T11:57:21.832Z,1.01
2023-02-04T12:01:15.828Z,1.18
2023-02-04T12:13:05.573Z,0.70
2023-02-04T12:17:06.106Z,0.41
2023-02-04T12:20:55.174Z,0.32
2023-02-04T12:33:04.983Z,-0.10
2023-02-04T12:36:52.656Z,-0.27
2023-02-04T12:40:40.304Z,-0.46
2023-02-04T12:44:28.413Z,-0.55
2023-02-04T13:00:06.254Z,-0.92
2023-02-04T13:03:55.438Z,-0.93
2023-02-04T13:07:44.274Z,-0.75
2023-02-04T13:11:33.287Z,-0.24
2023-02-04T13:15:22.264Z,-0.06
2023-02-04T13:19:11.803Z,-0.20
2023-02-04T13:23:00.880Z,-0.25
2023-02-04T13:26:50.299Z,-0.39
2023-02-04T13:30:39.504Z,-0.54
2023-02-04T13:34:28.705Z,-0.70
2023-02-04T13:38:17.803Z,-0.78
2023-02-04T13:42:07.171Z,-0.73
2023-02-04T13:45:56.258Z,-0.71
2023-02-04T13:49:45.725Z,-0.80
2023-02-04T13:53:34.822Z,-0.84
2023-02-04T13:57:23.990Z,-0.87
2023-02-04T14:01:13.390Z,-0.97
2023-02-04T14:05:02.746Z,-1.06
2023-02-04T14:08:52.014Z,-1.23
2023-02-04T14:12:41.076Z,-1.27
2023-02-04T14:16:30.218Z,-1.27
2023-02-04T14:20:20.312Z,-1.24
2023-02-04T14:24:09.581Z,-1.25
2023-02-04T14:28:00.356Z,-1.27
2023-02-04T14:31:49.710Z,-1.31
2023-02-04T14:35:39.014Z,-1.33
2023-02-04T14:39:29.188Z,-1.37
2023-02-04T14:43:17.533Z,-1.41
2023-02-04T14:47:34.035Z,-1.39
2023-02-04T14:51:13.897Z,-1.43
2023-02-04T14:54:51.805Z,-1.46
2023-02-04T14:58:03.638Z,-1.52
2023-02-04T15:01:27.735Z,-1.57
2023-02-04T15:05:10.385Z,-1.61
2023-02-04T15:08:22.652Z,-1.66
2023-02-04T15:11:37.010Z,-1.69
2023-02-04T15:14:53.162Z,-1.67
2023-02-04T15:17:42.136Z,-1.66
2023-02-04T15:20:58.208Z,-1.66
2023-02-04T15:24:14.793Z,-1.69
2023-02-04T15:27:26.220Z,-1.72
2023-02-04T15:30:58.281Z,-1.79
2023-02-04T15:34:21.262Z,-1.83
2023-02-04T15:37:36.638Z,-1.85
2023-02-04T15:40:39.313Z,-1.95
2023-02-04T15:44:28.447Z,-2.07
2023-02-04T15:48:17.849Z,-2.31
2023-02-04T15:52:13.481Z,-2.50
2023-02-04T16:04:10.665Z,-2.70
2023-02-04T16:07:59.873Z,-2.74
2023-02-04T16:11:49.831Z,-2.75
2023-02-04T16:23:43.541Z,-2.86
2023-02-04T16:27:33.350Z,-2.91
2023-02-04T16:31:22.585Z,-2.96
2023-02-04T16:35:12.074Z,-2.98
2023-02-04T16:39:10.620Z,-3.00
2023-02-04T16:42:41.407Z,-3.04
2023-02-04T16:46:30.787Z,-3.06
2023-02-04T16:50:21.171Z,-3.05
2023-02-04T16:54:11.001Z,-3.04
2023-02-04T16:58:00.267Z,-3.01
2023-02-04T17:01:51.565Z,-2.99
2023-02-04T17:05:40.870Z,-2.97
2023-02-04T17:09:31.247Z,-2.97
2023-02-04T17:13:22.043Z,-2.95
2023-02-04T17:17:11.588Z,-2.93
2023-02-04T17:21:00.978Z,-2.90
2023-02-04T17:24:42.607Z,-2.87
2023-02-04T17:28:20.053Z,-2.83
2023-02-04T17:32:09.853Z,-2.81
2023-02-04T17:35:59.677Z,-2.77
2023-02-04T17:39:49.038Z,-2.75
2023-02-04T17:43:38.178Z,-2.72
2023-02-04T17:47:27.241Z,-2.69
2023-02-04T17:51:16.545Z,-2.69
2023-02-04T17:54:58.695Z,-2.67
2023-02-04T17:58:48.145Z,-2.67
2023-02-04T18:02:39.920Z,-2.69
2023-02-04T18:22:24.728Z,-2.73
2023-02-04T18:26:14.661Z,-2.72
2023-02-04T18:30:13.104Z,-2.68
2023-02-04T18:34:05.227Z,-2.68
2023-02-04T18:38:03.613Z,-2.67
2023-02-04T18:50:35.824Z,-2.64
2023-02-04T18:54:26.530Z,-2.62
2023-02-04T18:57:53.816Z,-2.60
2023-02-04T19:09:46.828Z,-2.59
2023-02-04T19:13:36.102Z,-2.59
2023-02-04T19:17:25.641Z,-2.57
2023-02-04T19:29:26.972Z,-2.50
2023-02-04T19:33:25.731Z,-2.50
2023-02-04T19:49:40.288Z,-2.43
2023-02-04T19:53:36.667Z,-2.45
2023-02-04T20:05:32.304Z,-2.43
2023-02-04T20:09:29.127Z,-2.45
2023-02-04T20:13:09.469Z,-2.45
2023-02-04T20:17:16.826Z,-2.45
2023-02-04T20:21:11.894Z,-2.46
2023-02-04T20:36:59.530Z,-2.58
2023-02-04T20:40:47.182Z,-2.68
2023-02-04T20:56:37.237Z,-3.01
2023-02-04T21:00:26.256Z,-3.08
2023-02-04T21:04:18.760Z,-3.12
2023-02-04T21:08:08.600Z,-3.15
2023-02-04T21:11:51.186Z,-3.17
2023-02-04T21:27:29.293Z,-3.14
2023-02-04T21:31:18.367Z,-3.17
2023-02-04T21:35:07.765Z,-3.19
2023-02-04T21:38:56.463Z,-3.21
2023-02-04T21:42:46.054Z,-3.19
2023-02-04T21:46:35.303Z,-3.18
2023-02-04T21:50:24.369Z,-3.22
2023-02-04T21:54:13.503Z,-3.26
2023-02-04T21:58:02.741Z,-3.28
2023-02-04T22:01:51.846Z,-3.29
2023-02-04T22:05:41.464Z,-3.32
2023-02-04T22:09:11.149Z,-3.33
2023-02-04T22:13:01.110Z,-3.37
2023-02-04T22:16:49.976Z,-3.44
2023-02-04T22:28:42.190Z,-3.65
2023-02-04T22:32:31.190Z,-3.69
2023-02-04T22:36:20.640Z,-3.71
2023-02-04T22:40:09.769Z,-3.72
2023-02-04T22:43:58.976Z,-3.74
2023-02-04T22:47:48.012Z,-3.75
2023-02-04T22:51:37.321Z,-3.78
2023-02-04T22:55:26.233Z,-3.80
2023-02-04T22:59:15.266Z,-3.82
2023-02-04T23:03:04.355Z,-3.85
2023-02-04T23:06:54.748Z,-3.85
2023-02-04T23:10:43.830Z,-3.85
2023-02-04T23:14:34.090Z,-3.84
2023-02-04T23:18:23.225Z,-3.84
2023-02-04T23:22:12.663Z,-3.83
2023-02-04T23:26:02.999Z,-3.83
2023-02-04T23:45:48.443Z,-3.83
2023-02-04T23:49:35.973Z,-3.83
2023-02-04T23:53:23.846Z,-3.83
2023-02-04T23:57:11.477Z,-3.82
